Terminal Aerodrome Forecast
Issued by NWS

Home | Current Version | Previous Version | Text Only | Print | Product List | Glossary On
Versions: 1 2 3 4 5 6 7 8 9 10 11 12 13 14 15 16 17 18 19 20
000
FTUS44 KLZK 011740
TAFHRO
TAF
KHRO 011740Z 0118/0218 29008KT P6SM SCT250
     FM020000 32005KT P6SM BKN120
     FM020800 31005KT P6SM BKN050
     FM021200 32006KT P6SM VCSH BKN025 OVC050=

USA.gov is the U.S. government's official web portal to all federal, state and local government web resources and services.